Monroe, MI (48161)

1:58 AM EDT on March 24, 2017 (GMT -0400)
Carrington Farms | | Change Station

Elev 600 ft 41.92 °N, 83.45 °W | Updated 27 seconds ago

Rain
Rain
37.5 °F
Feels Like 38 °F
N
0.0
Wind Variable Wind from South

Today
High -- | Low -- °F
--% Chance of Precip.
Yesterday
High -- | Low -- °F
Precip. -- in
Pressure 30.13 in
Visibility 7.0 miles
Clouds Overcast 4100 ft
Windchill 38 °F
Dew Point 36 °F
Humidity 96%
Rainfall 0.22 in
Snow Depth Not available.
7:29 AM 7:50 PM
Waning Crescent, 17% visible
METAR KTTF 240552Z AUTO 16006KT 7SM RA OVC041 04/02 A3013 RMK AO2 P0006 60015 T00360018 10037 20015
Pressure 30.13 in
Visibility 7.0 miles
Clouds Overcast 4100 ft
Windchill 38 °F
Dew Point 36 °F
Humidity 96%
Rainfall 0.22 in
Snow Depth Not available.
7:29 AM 7:50 PM
Waning Crescent, 17% visible
METAR KTTF 240552Z AUTO 16006KT 7SM RA OVC041 04/02 A3013 RMK AO2 P0006 60015 T00360018 10037 20015

Get Severe Weather Alerts

Thanks for signing up!

Be on the lookout for a verification email in your inbox.

You'll start receiving the daily forecast at 8 AM.

×

10-Day Weather Forecast

Almanac

Astronomy

Mar. 24, 2017 Rise Set
Actual Time
Civil Twilight
Nautical Twilight
Astronomical Twilight
Moon
Length of Visible Light
Length of Day
Tomorrow will be .
, % of the Moon is Illuminated

Today's Extremes

State Highs State Lows

Community

WunderPhotos

Upload Photos

1,962,540 photos uploaded!

WunderBlog® & News

Nearby

Air Quality

  Air Quality AQ Index Pollutant
Not available.

Snow Depth

Station Depth Elevation

Earthquake Activity

City Distance Mag. Time & Date
Minimum magnitude displayed is 2.5.

Earthquake Activity

City Distance Mag. Time & Date
Minimum magnitude displayed is 2.5.

Coastal Water Temperatures

Place Temperature

Stations

Nearby Weather Stations

Station Location Temp. Windchill Dew Point Humidity Wind Precip. Elev Updated Type
                   

Watches & Warnings

There are currently no watches in effect.